createdAt,value
2022-12-04T00:01:12.283Z,97762.72
2022-12-04T00:03:40.608Z,97765.59
2022-12-04T00:06:10.837Z,97765.38
2022-12-04T00:08:39.534Z,97761.09
2022-12-04T00:11:10.411Z,97748.22
2022-12-04T00:13:40.203Z,97765.19
2022-12-04T00:16:10.074Z,97759.88
2022-12-04T00:18:38.154Z,97758.66
2022-12-04T00:21:07.614Z,97753.13
2022-12-04T00:23:36.384Z,97759.25
2022-12-04T00:26:06.313Z,97756.00
2022-12-04T00:28:36.643Z,97750.06
2022-12-04T00:31:07.183Z,97749.25
2022-12-04T00:33:35.771Z,97745.34
2022-12-04T00:36:06.779Z,97744.16
2022-12-04T00:38:35.065Z,97744.16
2022-12-04T00:41:03.109Z,97752.72
2022-12-04T00:43:32.793Z,97749.63
2022-12-04T00:46:02.158Z,97744.78
2022-12-04T00:48:31.052Z,97746.56
2022-12-04T00:51:03.358Z,97742.09
2022-12-04T00:53:31.485Z,97739.63
2022-12-04T00:55:59.991Z,97740.25
2022-12-04T00:58:28.153Z,97739.44
2022-12-04T01:01:05.933Z,97737.38
2022-12-04T01:03:34.847Z,97741.66
2022-12-04T01:06:03.688Z,97739.44
2022-12-04T01:08:32.051Z,97732.88
2022-12-04T01:11:00.090Z,97731.06
2022-12-04T01:13:28.310Z,97726.19
2022-12-04T01:15:56.465Z,97730.03
2022-12-04T01:18:25.752Z,97730.66
2022-12-04T01:20:54.098Z,97722.69
2022-12-04T01:23:22.287Z,97723.13
2022-12-04T01:25:54.155Z,97734.72
2022-12-04T01:28:22.565Z,97732.88
2022-12-04T01:31:02.411Z,97728.59
2022-12-04T01:33:33.254Z,97726.16
2022-12-04T01:36:03.479Z,97731.88
2022-12-04T01:38:31.525Z,97723.69
2022-12-04T01:41:00.099Z,97722.91
2022-12-04T01:43:30.526Z,97718.41
2022-12-04T01:45:59.464Z,97719.41
2022-12-04T01:48:32.106Z,97724.53
2022-12-04T01:51:07.383Z,97724.53
2022-12-04T01:53:37.854Z,97725.13
2022-12-04T01:56:06.727Z,97724.72
2022-12-04T01:58:39.114Z,97726.34
2022-12-04T02:01:09.469Z,97722.28
2022-12-04T02:03:38.814Z,97722.69
2022-12-04T02:06:08.590Z,97732.06
2022-12-04T02:08:37.875Z,97732.88
2022-12-04T02:11:25.875Z,97722.69
2022-12-04T02:14:01.282Z,97726.97
2022-12-04T02:16:38.868Z,97715.13
2022-12-04T02:19:32.162Z,97718.19
2022-12-04T02:22:07.454Z,97725.94
2022-12-04T02:24:50.436Z,97720.44
2022-12-04T02:27:32.369Z,97709.19
2022-12-04T02:30:05.650Z,97710.22
2022-12-04T02:32:39.621Z,97701.44
2022-12-04T02:35:13.944Z,97703.69
2022-12-04T02:37:46.771Z,97705.72
2022-12-04T02:40:22.348Z,97699.81
2022-12-04T02:42:56.677Z,97707.97
2022-12-04T02:45:29.909Z,97710.41
2022-12-04T02:48:04.634Z,97704.09
2022-12-04T02:50:36.447Z,97697.75
2022-12-04T02:53:08.807Z,97700.81
2022-12-04T02:55:42.973Z,97691.63
2022-12-04T02:58:15.572Z,97687.75
2022-12-04T03:00:48.319Z,97697.34
2022-12-04T03:03:20.808Z,97696.72
2022-12-04T03:05:56.783Z,97694.06
2022-12-04T03:08:28.993Z,97703.47
2022-12-04T03:11:01.309Z,97692.66
2022-12-04T03:13:34.388Z,97686.31
2022-12-04T03:16:08.946Z,97690.19
2022-12-04T03:18:40.756Z,97678.34
2022-12-04T03:21:14.324Z,97675.91
2022-12-04T03:23:47.894Z,97668.53
2022-12-04T03:26:24.975Z,97669.97
2022-12-04T03:28:58.158Z,97667.09
2022-12-04T03:31:34.293Z,97667.50
2022-12-04T03:34:05.720Z,97670.78
2022-12-04T03:36:38.538Z,97680.38
2022-12-04T03:39:13.939Z,97671.00
2022-12-04T03:41:52.302Z,97657.50
2022-12-04T03:44:24.802Z,97655.25
2022-12-04T03:46:58.713Z,97650.97
2022-12-04T03:49:33.177Z,97665.06
2022-12-04T03:52:06.341Z,97663.44
2022-12-04T03:54:38.834Z,97673.66
2022-12-04T03:57:13.959Z,97668.34
2022-12-04T03:59:49.906Z,97670.59
2022-12-04T04:02:26.673Z,97670.38
2022-12-04T04:04:59.313Z,97669.97
2022-12-04T04:07:35.636Z,97666.72
2022-12-04T04:10:12.030Z,97670.38
2022-12-04T04:12:44.381Z,97671.00
2022-12-04T04:15:33.154Z,97682.63
2022-12-04T04:18:20.765Z,97688.78
2022-12-04T04:21:15.559Z,97684.06
2022-12-04T04:24:04.079Z,97696.13
2022-12-04T04:26:36.990Z,97702.66
2022-12-04T04:29:04.909Z,97702.03
2022-12-04T04:31:40.155Z,97700.22
2022-12-04T04:34:17.777Z,97707.34
2022-12-04T04:36:55.305Z,97706.53
2022-12-04T04:39:31.665Z,97701.84
2022-12-04T04:42:08.010Z,97704.72
2022-12-04T04:44:45.140Z,97699.19
2022-12-04T04:47:18.235Z,97706.75
2022-12-04T04:49:51.090Z,97704.69
2022-12-04T04:52:22.494Z,97707.38
2022-12-04T04:54:50.572Z,97704.91
2022-12-04T04:57:27.986Z,97704.50
2022-12-04T04:59:56.581Z,97703.69
2022-12-04T05:02:27.114Z,97701.66
2022-12-04T05:04:56.617Z,97700.00
2022-12-04T05:07:24.844Z,97710.22
2022-12-04T05:09:53.033Z,97699.59
2022-12-04T05:12:21.190Z,97706.94
2022-12-04T05:14:49.346Z,97707.16
2022-12-04T05:17:17.300Z,97700.81
2022-12-04T05:19:55.211Z,97701.03
2022-12-04T05:22:29.429Z,97703.69
2022-12-04T05:24:57.279Z,97706.75
2022-12-04T05:27:26.566Z,97706.34
2022-12-04T05:29:55.390Z,97711.25
2022-12-04T05:32:25.314Z,97701.63
2022-12-04T05:34:55.335Z,97698.97
2022-12-04T05:37:25.328Z,97697.97
2022-12-04T05:39:54.459Z,97700.19
2022-12-04T05:42:23.529Z,97689.38
2022-12-04T05:44:52.112Z,97691.81
2022-12-04T05:47:20.463Z,97693.25
2022-12-04T05:49:48.693Z,97684.88
2022-12-04T05:52:17.434Z,97682.63
2022-12-04T05:54:47.046Z,97692.84
2022-12-04T05:57:15.089Z,97692.84
2022-12-04T05:59:43.410Z,97691.84
2022-12-04T06:02:11.753Z,97691.84
2022-12-04T06:04:39.719Z,97700.22
2022-12-04T06:07:07.680Z,97691.22
2022-12-04T06:09:36.051Z,97688.56
2022-12-04T06:12:07.016Z,97687.53
2022-12-04T06:14:39.317Z,97692.25
2022-12-04T06:17:07.567Z,97687.97
2022-12-04T06:19:35.911Z,97687.34
2022-12-04T06:22:05.107Z,97688.97
2022-12-04T06:24:33.324Z,97688.56
2022-12-04T06:27:26.697Z,97690.00
2022-12-04T06:29:51.095Z,97693.66
2022-12-04T06:32:21.743Z,97686.31
2022-12-04T06:34:52.683Z,97689.38
2022-12-04T06:37:21.863Z,97687.13
2022-12-04T06:39:50.378Z,97688.78
2022-12-04T06:42:18.913Z,97688.38
2022-12-04T06:44:46.854Z,97681.22
2022-12-04T06:47:16.284Z,97677.72
2022-12-04T06:49:46.118Z,97678.16
2022-12-04T06:52:14.449Z,97678.16
2022-12-04T06:54:42.607Z,97692.84
2022-12-04T06:57:10.487Z,97677.53
2022-12-04T06:59:38.842Z,97693.28
2022-12-04T07:02:06.802Z,97689.19
2022-12-04T07:04:36.147Z,97687.34
2022-12-04T07:07:04.143Z,97685.72
2022-12-04T07:09:32.143Z,97693.69
2022-12-04T07:12:00.195Z,97696.53
2022-12-04T07:14:28.144Z,97695.09
2022-12-04T07:16:56.359Z,97702.03
2022-12-04T07:19:24.465Z,97703.47
2022-12-04T07:21:53.822Z,97706.75
2022-12-04T07:24:22.174Z,97691.00
2022-12-04T07:26:50.196Z,97695.91
2022-12-04T07:29:18.132Z,97693.66
2022-12-04T07:31:46.162Z,97692.84
2022-12-04T07:34:14.192Z,97691.63
2022-12-04T07:36:42.463Z,97692.63
2022-12-04T07:39:11.781Z,97697.94
2022-12-04T07:41:40.086Z,97699.38
2022-12-04T07:44:08.489Z,97698.75
2022-12-04T07:46:37.317Z,97692.41
2022-12-04T07:49:05.494Z,97687.94
2022-12-04T07:51:33.663Z,97700.38
2022-12-04T07:54:04.020Z,97705.91
2022-12-04T07:56:34.733Z,97699.97
2022-12-04T07:59:03.253Z,97703.88
2022-12-04T08:01:31.673Z,97712.03
2022-12-04T08:04:03.107Z,97710.19
2022-12-04T08:06:33.504Z,97709.19
2022-12-04T08:09:07.767Z,97713.25
2022-12-04T08:11:39.280Z,97705.50
2022-12-04T08:14:08.906Z,97698.75
2022-12-04T08:16:37.001Z,97698.94
2022-12-04T08:19:05.579Z,97697.94
2022-12-04T08:21:34.383Z,97696.09
2022-12-04T08:24:03.610Z,97698.53
2022-12-04T08:26:33.919Z,97700.38
2022-12-04T08:29:04.655Z,97699.38
2022-12-04T08:31:35.144Z,97698.53
2022-12-04T08:34:06.356Z,97699.97
2022-12-04T08:36:36.236Z,97700.19
2022-12-04T08:39:05.275Z,97711.00
2022-12-04T08:41:33.716Z,97706.31
2022-12-04T08:44:03.175Z,97705.47
2022-12-04T08:46:31.911Z,97700.16
2022-12-04T08:49:00.086Z,97702.22
2022-12-04T08:51:30.407Z,97709.16
2022-12-04T08:53:59.978Z,97722.44
2022-12-04T08:56:29.534Z,97735.34
2022-12-04T08:58:57.945Z,97735.94
2022-12-04T09:01:27.988Z,97736.34
2022-12-04T09:03:56.760Z,97733.28
2022-12-04T09:06:25.467Z,97739.22
2022-12-04T09:08:55.471Z,97741.25
2022-12-04T09:11:24.844Z,97746.34
2022-12-04T09:13:53.080Z,97753.09
2022-12-04T09:16:23.166Z,97749.81
2022-12-04T09:18:53.335Z,97738.56
2022-12-04T09:21:23.176Z,97745.50
2022-12-04T09:23:52.057Z,97744.28
2022-12-04T09:26:23.390Z,97743.66
2022-12-04T09:28:52.187Z,97728.75
2022-12-04T09:31:20.497Z,97731.22
2022-12-04T09:33:48.993Z,97729.16
2022-12-04T09:36:18.439Z,97723.66
2022-12-04T09:38:48.055Z,97721.59
2022-12-04T09:41:26.745Z,97705.44
2022-12-04T09:43:59.247Z,97703.59
2022-12-04T09:46:33.098Z,97696.44
2022-12-04T09:49:06.686Z,97683.97
2022-12-04T09:51:38.777Z,97670.91
2022-12-04T09:54:15.024Z,97672.16
2022-12-04T09:56:55.591Z,97662.72
2022-12-04T09:59:26.553Z,97657.63
2022-12-04T10:02:02.984Z,97651.50
2022-12-04T10:04:33.630Z,97665.81
2022-12-04T10:07:12.438Z,97660.50
2022-12-04T10:09:47.365Z,97643.28
2022-12-04T10:12:24.725Z,97649.88
2022-12-04T10:15:04.810Z,97647.41
2022-12-04T10:18:01.773Z,97643.31
2022-12-04T10:20:57.923Z,97643.53
2022-12-04T10:23:39.233Z,97652.31
2022-12-04T10:26:16.119Z,97644.94
2022-12-04T10:28:55.036Z,97642.91
2022-12-04T10:31:24.641Z,97646.78
2022-12-04T10:33:54.809Z,97647.19
2022-12-04T10:36:29.321Z,97649.69
2022-12-04T10:39:02.715Z,97639.25
2022-12-04T10:41:37.140Z,97653.53
2022-12-04T10:44:05.421Z,97655.75
2022-12-04T10:46:36.347Z,97650.63
2022-12-04T10:49:09.588Z,97655.88
2022-12-04T10:51:42.225Z,97652.00
2022-12-04T10:54:20.554Z,97654.03
2022-12-04T10:56:54.218Z,97660.22
2022-12-04T10:59:22.646Z,97658.34
2022-12-04T11:01:52.262Z,97652.59
2022-12-04T11:04:24.942Z,97651.38
2022-12-04T11:07:02.196Z,97648.50
2022-12-04T11:09:32.530Z,97640.91
2022-12-04T11:12:08.748Z,97637.44
2022-12-04T11:14:36.777Z,97628.22
2022-12-04T11:17:07.655Z,97630.47
2022-12-04T11:19:37.532Z,97612.03
2022-12-04T11:22:12.648Z,97616.97
2022-12-04T11:24:43.762Z,97621.88
2022-12-04T11:27:21.399Z,97630.69
2022-12-04T11:29:50.513Z,97617.38
2022-12-04T11:32:23.241Z,97622.91
2022-12-04T11:34:53.753Z,97618.19
2022-12-04T11:37:26.400Z,97617.34
2022-12-04T11:39:56.958Z,97613.44
2022-12-04T11:42:26.744Z,97619.78
2022-12-04T11:44:56.764Z,97630.06
2022-12-04T11:47:26.965Z,97638.63
2022-12-04T11:50:01.817Z,97644.16
2022-12-04T11:52:50.125Z,97632.47
2022-12-04T11:55:29.201Z,97636.78
2022-12-04T11:58:15.508Z,97635.75
2022-12-04T12:00:51.660Z,97636.75
2022-12-04T12:03:28.781Z,97610.19
2022-12-04T12:06:18.539Z,97615.25
2022-12-04T12:09:04.372Z,97618.50
2022-12-04T12:11:37.892Z,97600.72
2022-12-04T12:14:10.872Z,97598.66
2022-12-04T12:16:51.661Z,97591.09
2022-12-04T12:19:52.235Z,97607.03
2022-12-04T12:22:35.276Z,97613.38
2022-12-04T12:25:13.030Z,97603.97
2022-12-04T12:27:56.733Z,97589.47
2022-12-04T12:30:27.596Z,97588.41
2022-12-04T12:33:11.100Z,97573.91
2022-12-04T12:35:44.493Z,97575.09
2022-12-04T12:38:18.298Z,97568.16
2022-12-04T12:40:52.029Z,97577.16
2022-12-04T12:43:30.325Z,97586.13
2022-12-04T12:46:03.402Z,97600.28
2022-12-04T12:48:35.732Z,97592.53
2022-12-04T12:51:29.096Z,97577.34
2022-12-04T12:54:03.209Z,97565.50
2022-12-04T12:56:41.317Z,97562.63
2022-12-04T12:59:18.770Z,97581.66
2022-12-04T13:01:55.952Z,97581.63
2022-12-04T13:04:34.717Z,97584.75
2022-12-04T13:07:14.340Z,97583.09
2022-12-04T13:09:49.094Z,97587.03
2022-12-04T13:12:19.427Z,97589.88
2022-12-04T13:14:49.342Z,97591.16
2022-12-04T13:17:22.316Z,97600.97
2022-12-04T13:19:54.088Z,97593.63
2022-12-04T13:22:31.404Z,97591.09
2022-12-04T13:25:19.544Z,97584.63
2022-12-04T13:27:57.514Z,97583.97
2022-12-04T13:30:33.450Z,97588.06
2022-12-04T13:33:18.380Z,97588.50
2022-12-04T13:36:10.228Z,97603.63
2022-12-04T13:38:48.101Z,97602.59
2022-12-04T13:41:19.665Z,97593.00
2022-12-04T13:43:49.722Z,97587.28
2022-12-04T13:46:34.795Z,97594.22
2022-12-04T13:49:10.984Z,97589.31
2022-12-04T13:51:40.724Z,97595.09
2022-12-04T13:54:31.610Z,97594.63
2022-12-04T13:57:17.781Z,97600.31
2022-12-04T13:59:46.586Z,97603.63
2022-12-04T14:02:28.167Z,97591.16
2022-12-04T14:05:00.348Z,97590.28
2022-12-04T14:07:32.072Z,97581.47
2022-12-04T14:10:04.900Z,97558.75
2022-12-04T14:12:36.638Z,97535.00
2022-12-04T14:15:08.103Z,97557.31
2022-12-04T14:17:39.648Z,97545.03
2022-12-04T14:20:23.090Z,97548.13
2022-12-04T14:22:51.040Z,97556.78
2022-12-04T14:25:34.354Z,97576.22
2022-12-04T14:28:14.412Z,97581.31
2022-12-04T14:30:44.417Z,97582.19
2022-12-04T14:33:21.678Z,97590.53
2022-12-04T14:35:52.090Z,97604.66
2022-12-04T14:38:23.073Z,97602.22
2022-12-04T14:40:54.342Z,97595.22
2022-12-04T14:43:24.910Z,97590.31
2022-12-04T14:45:59.386Z,97595.66
2022-12-04T14:48:36.858Z,97591.75
2022-12-04T14:51:12.955Z,97595.84
2022-12-04T14:53:48.492Z,97595.25
2022-12-04T14:56:27.211Z,97597.75
2022-12-04T14:58:56.377Z,97607.78
2022-12-04T15:01:29.462Z,97601.22
2022-12-04T15:04:08.536Z,97611.00
2022-12-04T15:06:36.812Z,97599.81
2022-12-04T15:09:32.576Z,97610.00
2022-12-04T15:12:17.747Z,97614.91
2022-12-04T15:14:47.398Z,97619.19
2022-12-04T15:17:17.006Z,97604.22
2022-12-04T15:19:46.475Z,97603.88
2022-12-04T15:22:23.625Z,97613.91
2022-12-04T15:24:55.312Z,97622.91
2022-12-04T15:27:32.431Z,97636.59
2022-12-04T15:30:02.292Z,97622.47
2022-12-04T15:32:32.570Z,97624.16
2022-12-04T15:35:04.482Z,97627.81
2022-12-04T15:37:33.843Z,97621.03
2022-12-04T15:40:06.155Z,97626.19
2022-12-04T15:42:34.419Z,97617.59
2022-12-04T15:45:03.852Z,97617.16
2022-12-04T15:47:34.245Z,97614.94
2022-12-04T15:50:12.010Z,97608.84
2022-12-04T15:52:48.859Z,97616.38
2022-12-04T15:55:20.742Z,97609.84
2022-12-04T15:57:54.353Z,97615.56
2022-12-04T16:00:29.920Z,97611.06
2022-12-04T16:02:59.258Z,97608.41
2022-12-04T16:05:37.431Z,97609.03
2022-12-04T16:08:25.178Z,97600.94
2022-12-04T16:11:00.923Z,97600.66
2022-12-04T16:13:31.578Z,97606.59
2022-12-04T16:16:00.248Z,97608.91
2022-12-04T16:18:29.811Z,97606.81
2022-12-04T16:20:59.579Z,97607.41
2022-12-04T16:23:28.087Z,97604.34
2022-12-04T16:25:56.285Z,97611.72
2022-12-04T16:28:24.417Z,97598.81
2022-12-04T16:30:53.904Z,97596.16
2022-12-04T16:33:21.943Z,97598.84
2022-12-04T16:35:50.503Z,97600.09
2022-12-04T16:38:19.855Z,97597.44
2022-12-04T16:40:49.297Z,97605.19
2022-12-04T16:43:18.312Z,97599.66
2022-12-04T16:45:48.131Z,97597.66
2022-12-04T16:48:16.774Z,97598.09
2022-12-04T16:50:46.504Z,97587.63
2022-12-04T16:53:17.712Z,97596.47
2022-12-04T16:55:49.473Z,97586.63
2022-12-04T16:58:18.865Z,97586.00
2022-12-04T17:00:52.649Z,97584.59
2022-12-04T17:03:26.195Z,97573.34
2022-12-04T17:05:54.667Z,97568.34
2022-12-04T17:08:23.550Z,97574.16
2022-12-04T17:10:53.791Z,97579.28
2022-12-04T17:13:23.166Z,97573.75
2022-12-04T17:15:51.236Z,97577.56
2022-12-04T17:18:21.280Z,97569.44
2022-12-04T17:20:49.863Z,97570.91
2022-12-04T17:23:17.956Z,97571.50
2022-12-04T17:25:46.039Z,97582.53
2022-12-04T17:28:15.594Z,97581.75
2022-12-04T17:30:46.629Z,97595.22
2022-12-04T17:33:15.394Z,97599.09
2022-12-04T17:35:44.893Z,97599.28
2022-12-04T17:38:12.859Z,97611.38
2022-12-04T17:40:41.213Z,97606.06
2022-12-04T17:43:09.662Z,97612.19
2022-12-04T17:45:42.230Z,97600.53
2022-12-04T17:48:10.305Z,97613.16
2022-12-04T17:50:38.709Z,97615.59
2022-12-04T17:53:06.971Z,97610.06
2022-12-04T17:55:35.649Z,97613.34
2022-12-04T17:58:03.887Z,97611.06
2022-12-04T18:00:32.850Z,97616.19
2022-12-04T18:03:02.590Z,97610.69
2022-12-04T18:05:30.632Z,97611.28
2022-12-04T18:07:58.658Z,97607.59
2022-12-04T18:10:26.878Z,97607.59
2022-12-04T18:12:54.861Z,97619.25
2022-12-04T18:15:23.280Z,97621.28
2022-12-04T18:17:51.294Z,97611.28
2022-12-04T18:20:20.814Z,97614.94
2022-12-04T18:22:48.847Z,97609.00
2022-12-04T18:25:17.140Z,97607.78
2022-12-04T18:27:45.605Z,97619.00
2022-12-04T18:30:19.420Z,97621.66
2022-12-04T18:32:48.120Z,97620.66
2022-12-04T18:35:16.148Z,97621.84
2022-12-04T18:37:45.805Z,97626.78
2022-12-04T18:40:14.754Z,97628.41
2022-12-04T18:42:42.667Z,97632.69
2022-12-04T18:45:11.857Z,97627.38
2022-12-04T18:47:40.041Z,97627.59
2022-12-04T18:50:09.074Z,97629.00
2022-12-04T18:52:38.548Z,97627.97
2022-12-04T18:55:09.059Z,97632.88
2022-12-04T18:57:36.942Z,97634.94
2022-12-04T19:00:05.819Z,97637.00
2022-12-04T19:02:33.976Z,97637.00
2022-12-04T19:05:01.890Z,97633.31
2022-12-04T19:07:30.165Z,97642.09
2022-12-04T19:10:13.516Z,97643.94
2022-12-04T19:12:42.996Z,97647.63
2022-12-04T19:15:11.747Z,97651.09
2022-12-04T19:17:42.531Z,97649.88
2022-12-04T19:20:12.792Z,97656.63
2022-12-04T19:22:40.938Z,97654.19
2022-12-04T19:25:09.770Z,97661.34
2022-12-04T19:27:37.693Z,97661.94
2022-12-04T19:30:08.531Z,97664.59
2022-12-04T19:32:36.453Z,97671.13
2022-12-04T19:35:04.598Z,97673.19
2022-12-04T19:37:33.470Z,97677.69
2022-12-04T19:40:04.458Z,97679.31
2022-12-04T19:42:32.552Z,97678.72
2022-12-04T19:45:02.970Z,97683.81
2022-12-04T19:47:35.541Z,97688.94
2022-12-04T19:50:04.518Z,97687.28
2022-12-04T19:52:38.040Z,97692.41
2022-12-04T19:55:09.088Z,97696.69
2022-12-04T19:57:41.019Z,97700.97
2022-12-04T20:00:12.660Z,97698.13
2022-12-04T20:02:45.144Z,97708.97
2022-12-04T20:05:15.414Z,97703.44
2022-12-04T20:07:43.383Z,97703.66
2022-12-04T20:10:12.080Z,97710.81
2022-12-04T20:12:41.326Z,97712.66
2022-12-04T20:15:11.730Z,97711.00
2022-12-04T20:17:47.676Z,97708.97
2022-12-04T20:20:16.276Z,97704.25
2022-12-04T20:22:48.469Z,97695.88
2022-12-04T20:25:17.305Z,97705.69
2022-12-04T20:27:48.527Z,97699.56
2022-12-04T20:30:17.530Z,97705.31
2022-12-04T20:32:47.223Z,97713.88
2022-12-04T20:35:16.695Z,97712.03
2022-12-04T20:37:45.158Z,97719.19
2022-12-04T20:40:14.471Z,97712.06
2022-12-04T20:42:45.180Z,97722.69
2022-12-04T20:45:13.593Z,97718.38
2022-12-04T20:47:42.738Z,97718.59
2022-12-04T20:50:12.780Z,97716.75
2022-12-04T20:52:44.497Z,97723.91
2022-12-04T20:55:13.447Z,97716.16
2022-12-04T20:57:41.430Z,97712.88
2022-12-04T21:00:10.399Z,97718.59
2022-12-04T21:02:38.468Z,97721.25
2022-12-04T21:05:07.724Z,97719.19
2022-12-04T21:07:40.523Z,97707.56
2022-12-04T21:10:09.800Z,97719.00
2022-12-04T21:12:55.511Z,97724.53
2022-12-04T21:15:41.240Z,97714.91
2022-12-04T21:18:10.462Z,97719.41
2022-12-04T21:20:39.631Z,97723.72
2022-12-04T21:23:09.490Z,97731.69
2022-12-04T21:25:38.715Z,97733.91
2022-12-04T21:28:07.168Z,97720.03
2022-12-04T21:30:36.831Z,97720.22
2022-12-04T21:33:04.828Z,97725.56
2022-12-04T21:35:32.915Z,97723.09
2022-12-04T21:38:01.448Z,97724.53
2022-12-04T21:40:31.414Z,97719.19
2022-12-04T21:42:59.638Z,97729.63
2022-12-04T21:45:27.514Z,97722.47
2022-12-04T21:47:55.901Z,97736.78
2022-12-04T21:50:24.354Z,97733.91
2022-12-04T21:52:55.811Z,97724.53
2022-12-04T21:55:24.553Z,97733.09
2022-12-04T21:57:53.842Z,97739.03
2022-12-04T22:00:23.707Z,97739.25
2022-12-04T22:02:51.868Z,97736.59
2022-12-04T22:05:20.635Z,97733.09
2022-12-04T22:07:48.976Z,97739.03
2022-12-04T22:10:16.975Z,97747.81
2022-12-04T22:12:50.328Z,97741.47
2022-12-04T22:15:20.394Z,97739.03
2022-12-04T22:17:48.371Z,97744.94
2022-12-04T22:20:16.831Z,97746.59
2022-12-04T22:22:44.912Z,97757.44
2022-12-04T22:25:14.299Z,97759.06
2022-12-04T22:27:42.525Z,97759.88
2022-12-04T22:30:11.885Z,97762.75
2022-12-04T22:32:41.749Z,97762.97
2022-12-04T22:35:10.528Z,97758.47
2022-12-04T22:37:44.102Z,97770.72
2022-12-04T22:40:14.022Z,97775.84
2022-12-04T22:42:41.939Z,97772.56
2022-12-04T22:45:10.980Z,97770.72
2022-12-04T22:47:39.424Z,97779.53
2022-12-04T22:50:12.083Z,97777.91
2022-12-04T22:52:40.273Z,97781.38
2022-12-04T22:55:08.957Z,97785.88
2022-12-04T22:57:36.908Z,97794.66
2022-12-04T23:00:06.518Z,97778.91
2022-12-04T23:02:34.420Z,97773.59
2022-12-04T23:05:02.877Z,97785.06
2022-12-04T23:07:32.615Z,97786.69
2022-12-04T23:10:00.864Z,97789.13
2022-12-04T23:12:29.799Z,97775.03
2022-12-04T23:14:58.056Z,97770.09
2022-12-04T23:17:26.051Z,97770.53
2022-12-04T23:19:54.203Z,97774.63
2022-12-04T23:22:22.302Z,97777.28
2022-12-04T23:24:51.759Z,97772.38
2022-12-04T23:27:19.962Z,97781.97
2022-12-04T23:29:53.488Z,97774.81
2022-12-04T23:32:22.163Z,97781.97
2022-12-04T23:34:50.427Z,97790.56
2022-12-04T23:37:18.397Z,97784.44
2022-12-04T23:39:46.314Z,97790.56
2022-12-04T23:42:15.715Z,97786.28
2022-12-04T23:44:43.659Z,97805.69
2022-12-04T23:47:11.633Z,97818.19
2022-12-04T23:49:39.622Z,97819.81
2022-12-04T23:52:07.555Z,97828.41
2022-12-04T23:54:37.721Z,97840.69
2022-12-04T23:57:05.722Z,97829.44
2022-12-04T23:59:35.444Z,97845.38
